Rechercher aéroport 
image banner adimage banner adimage banner ad
image banner ad

0CL0 - Yosemite Hidden Lake Ranch

Situé à Raymond, United States

ICAO - 0CL0, IATA -

Données fournies par Airmate  

Information générale

Coordonnées: N37°7'5" W119°54'48"
Élévation : 500 feet MSL.
Variation magnétique : 15° East
Voir autres Aéroports à California

Données opérationnelles

Special qualification required
Heure actuelle UTC:
Heure actuelle locale:
Météo à : KMAE - Madera Muni ( 23 km )
METAR: KMAE 251553Z AUTO 30005KT 10SM CLR 26/10 A2990 RMK AO2 SLP123 T02610100
Voir NOTAMs / SUP AIP / TFR affectant cet aéroport [VIEW]
Fréquences de communication: [VIEW]

Pistes:

Identifiant RWYQFULongueur (ft)Largeur (ft)SurfaceLDA (ft)
17372075EARTH
35372075EARTH

Coordonnées de l'aéroport

Adresse: Raymond United States

Vue satellite de 0CL0